createdAt,value
2023-05-10T00:00:44.208Z,8.68
2023-05-10T00:03:11.017Z,8.13
2023-05-10T00:05:37.664Z,8.57
2023-05-10T00:08:04.419Z,9.90
2023-05-10T00:10:30.928Z,9.73
2023-05-10T00:12:57.472Z,9.18
2023-05-10T00:15:24.028Z,9.47
2023-05-10T00:17:50.784Z,10.00
2023-05-10T00:20:17.745Z,10.48
2023-05-10T00:22:44.636Z,10.93
2023-05-10T00:25:11.550Z,8.95
2023-05-10T00:27:38.037Z,10.90
2023-05-10T00:30:05.102Z,10.32
2023-05-10T00:32:31.748Z,10.45
2023-05-10T00:34:58.216Z,8.93
2023-05-10T00:37:24.692Z,8.25
2023-05-10T00:39:51.355Z,8.17
2023-05-10T00:42:17.864Z,9.27
2023-05-10T00:44:44.354Z,10.68
2023-05-10T00:47:11.099Z,11.38
2023-05-10T00:49:37.855Z,11.23
2023-05-10T00:52:04.811Z,12.90
2023-05-10T00:54:31.570Z,13.48
2023-05-10T00:56:58.333Z,14.32
2023-05-10T00:59:25.205Z,15.15
2023-05-10T01:01:52.696Z,14.00
2023-05-10T01:04:21.099Z,15.33
2023-05-10T01:06:47.653Z,14.95
2023-05-10T01:09:14.169Z,14.43
2023-05-10T01:11:41.156Z,14.48
2023-05-10T01:14:08.176Z,13.52
2023-05-10T01:16:39.173Z,14.80
2023-05-10T01:19:13.841Z,15.63
2023-05-10T01:21:50.741Z,14.65
2023-05-10T01:24:20.198Z,15.38
2023-05-10T01:27:01.929Z,15.23
2023-05-10T01:29:30.378Z,13.63
2023-05-10T01:32:17.641Z,14.00
2023-05-10T01:35:07.308Z,14.30
2023-05-10T01:38:06.663Z,13.77
2023-05-10T01:40:53.267Z,14.07
2023-05-10T01:43:25.973Z,15.00
2023-05-10T01:46:12.913Z,14.25
2023-05-10T01:48:47.938Z,14.57
2023-05-10T01:51:18.437Z,15.00
2023-05-10T01:53:49.152Z,14.85
2023-05-10T01:56:17.084Z,15.00
2023-05-10T01:58:48.198Z,14.32
2023-05-10T02:01:15.884Z,15.57
2023-05-10T02:03:44.546Z,15.02
2023-05-10T02:06:13.735Z,15.45
2023-05-10T02:08:42.104Z,13.90
2023-05-10T02:11:12.271Z,15.13
2023-05-10T02:13:40.448Z,15.68
2023-05-10T02:16:08.196Z,15.70
2023-05-10T02:18:37.542Z,14.23
2023-05-10T02:21:04.513Z,13.70
2023-05-10T02:23:32.218Z,15.57
2023-05-10T02:26:01.116Z,15.95
2023-05-10T02:28:28.911Z,15.25
2023-05-10T02:30:56.193Z,15.70
2023-05-10T02:33:23.364Z,15.90
2023-05-10T02:35:51.712Z,15.93
2023-05-10T02:38:21.476Z,15.38
2023-05-10T02:40:49.189Z,14.80
2023-05-10T02:43:18.124Z,15.15
2023-05-10T02:45:48.281Z,14.20
2023-05-10T02:48:15.067Z,16.75
2023-05-10T02:50:45.561Z,15.15
2023-05-10T02:53:20.143Z,15.35
2023-05-10T02:55:51.583Z,16.63
2023-05-10T02:58:20.276Z,16.37
2023-05-10T03:00:47.430Z,16.45
2023-05-10T03:03:13.914Z,16.67
2023-05-10T03:05:40.337Z,16.98
2023-05-10T03:08:07.206Z,17.17
2023-05-10T03:10:39.067Z,18.40
2023-05-10T03:13:14.352Z,17.90
2023-05-10T03:15:55.965Z,18.83
2023-05-10T03:18:24.468Z,17.13
2023-05-10T03:20:54.366Z,18.33
2023-05-10T03:23:32.050Z,18.07
2023-05-10T03:26:00.413Z,17.45
2023-05-10T03:28:28.279Z,17.30
2023-05-10T03:30:56.157Z,17.70
2023-05-10T03:33:22.762Z,16.42
2023-05-10T03:35:49.247Z,16.17
2023-05-10T03:38:15.832Z,18.35
2023-05-10T03:40:42.389Z,17.02
2023-05-10T03:43:09.104Z,17.13
2023-05-10T03:45:35.762Z,17.50
2023-05-10T03:48:02.351Z,16.33
2023-05-10T03:50:29.116Z,17.23
2023-05-10T03:52:56.166Z,18.33
2023-05-10T03:55:23.460Z,17.95
2023-05-10T03:57:50.708Z,16.70
2023-05-10T04:00:17.845Z,18.47
2023-05-10T04:02:46.050Z,17.75
2023-05-10T04:05:13.506Z,17.50
2023-05-10T04:07:40.121Z,16.80
2023-05-10T04:10:07.490Z,17.33
2023-05-10T04:12:33.996Z,15.93
2023-05-10T04:15:00.432Z,17.33
2023-05-10T04:17:26.968Z,16.23
2023-05-10T04:19:55.647Z,14.68
2023-05-10T04:22:22.194Z,16.15
2023-05-10T04:24:48.702Z,16.00
2023-05-10T04:27:15.269Z,16.27
2023-05-10T04:29:42.617Z,15.75
2023-05-10T04:32:09.177Z,15.48
2023-05-10T04:34:35.687Z,16.35
2023-05-10T04:37:02.302Z,16.00
2023-05-10T04:39:28.839Z,14.98
2023-05-10T04:41:55.345Z,15.45
2023-05-10T04:44:21.882Z,15.75
2023-05-10T04:46:48.488Z,16.52
2023-05-10T04:49:15.471Z,14.37
2023-05-10T04:51:42.000Z,16.23
2023-05-10T04:54:08.515Z,15.95
2023-05-10T04:56:34.999Z,16.95
2023-05-10T04:59:01.718Z,16.15
2023-05-10T05:01:30.533Z,15.67
2023-05-10T05:03:57.288Z,15.77
2023-05-10T05:06:25.746Z,16.67
2023-05-10T05:08:52.603Z,16.13
2023-05-10T05:11:19.286Z,18.08
2023-05-10T05:13:45.817Z,16.30
2023-05-10T05:16:12.598Z,16.30
2023-05-10T05:18:39.519Z,17.20
2023-05-10T05:21:17.108Z,16.23
2023-05-10T05:23:44.097Z,17.45
2023-05-10T05:26:11.580Z,16.33
2023-05-10T05:28:38.630Z,16.75
2023-05-10T05:31:06.460Z,17.80
2023-05-10T05:33:33.097Z,17.58
2023-05-10T05:36:02.041Z,16.92
2023-05-10T05:38:28.998Z,17.63
2023-05-10T05:40:55.609Z,18.10
2023-05-10T05:43:22.100Z,18.15
2023-05-10T05:46:01.023Z,16.25
2023-05-10T05:48:27.562Z,17.35
2023-05-10T05:50:57.614Z,16.90
2023-05-10T05:53:24.799Z,17.80
2023-05-10T05:55:58.698Z,18.77
2023-05-10T05:58:26.100Z,17.90
2023-05-10T06:00:53.154Z,18.33
2023-05-10T06:03:20.236Z,16.40
2023-05-10T06:05:47.316Z,15.88
2023-05-10T06:08:13.881Z,15.43
2023-05-10T06:10:40.450Z,14.75
2023-05-10T06:13:07.018Z,16.15
2023-05-10T06:15:33.794Z,15.50
2023-05-10T06:18:00.518Z,15.98
2023-05-10T06:20:27.409Z,16.33
2023-05-10T06:22:54.062Z,15.80
2023-05-10T06:25:20.561Z,15.43
2023-05-10T06:27:50.488Z,15.67
2023-05-10T06:30:19.384Z,15.40
2023-05-10T06:32:46.364Z,14.30
2023-05-10T06:35:12.966Z,14.48
2023-05-10T06:37:39.523Z,14.48
2023-05-10T06:40:07.416Z,13.77
2023-05-10T06:42:33.846Z,13.73
2023-05-10T06:45:00.388Z,13.65
2023-05-10T06:47:26.994Z,12.13
2023-05-10T06:49:53.585Z,11.88
2023-05-10T06:52:20.079Z,12.43
2023-05-10T06:54:46.601Z,11.48
2023-05-10T06:57:27.648Z,11.85
2023-05-10T06:59:57.544Z,10.20
2023-05-10T07:02:24.103Z,10.80
2023-05-10T07:04:52.789Z,9.63
2023-05-10T07:07:20.255Z,8.15
2023-05-10T07:09:47.101Z,8.80
2023-05-10T07:12:15.378Z,7.97
2023-05-10T07:14:43.000Z,6.90
2023-05-10T07:17:10.089Z,7.30
2023-05-10T07:19:37.219Z,6.78
2023-05-10T07:22:04.205Z,7.40
2023-05-10T07:24:32.181Z,7.25
2023-05-10T07:26:58.741Z,6.45
2023-05-10T07:29:25.288Z,6.23
2023-05-10T07:31:51.874Z,5.93
2023-05-10T07:34:18.471Z,5.75
2023-05-10T07:36:45.078Z,6.70
2023-05-10T07:39:14.377Z,6.88
2023-05-10T07:41:43.063Z,6.03
2023-05-10T07:44:09.562Z,7.00
2023-05-10T07:46:36.052Z,6.57
2023-05-10T07:49:02.521Z,6.07
2023-05-10T07:51:29.538Z,5.70
2023-05-10T07:53:56.301Z,6.37
2023-05-10T07:56:31.177Z,6.45
2023-05-10T07:58:57.972Z,6.00
2023-05-10T08:01:24.965Z,5.75
2023-05-10T08:03:52.240Z,6.00
2023-05-10T08:06:20.166Z,5.83
2023-05-10T08:08:50.410Z,5.18
2023-05-10T08:11:21.481Z,5.57
2023-05-10T08:13:49.733Z,5.93
2023-05-10T08:16:18.043Z,6.20
2023-05-10T08:18:50.183Z,6.13
2023-05-10T08:21:16.980Z,6.60
2023-05-10T08:23:45.273Z,5.78
2023-05-10T08:26:12.327Z,6.30
2023-05-10T08:28:39.114Z,6.47
2023-05-10T08:31:06.625Z,7.10
2023-05-10T08:33:33.639Z,6.32
2023-05-10T08:36:00.344Z,6.60
2023-05-10T08:38:26.970Z,7.15
2023-05-10T08:40:58.159Z,6.78
2023-05-10T08:43:29.185Z,6.60
2023-05-10T08:45:57.465Z,6.30
2023-05-10T08:48:26.014Z,6.78
2023-05-10T08:50:55.848Z,6.93
2023-05-10T08:53:26.145Z,6.82
2023-05-10T08:55:53.353Z,7.33
2023-05-10T08:58:20.602Z,6.97
2023-05-10T09:00:49.929Z,6.93
2023-05-10T09:03:16.648Z,6.75
2023-05-10T09:05:43.311Z,6.88
2023-05-10T09:08:10.367Z,7.67
2023-05-10T09:10:38.089Z,6.90
2023-05-10T09:13:05.079Z,6.68
2023-05-10T09:15:31.833Z,5.43
2023-05-10T09:18:00.371Z,5.63
2023-05-10T09:20:27.012Z,6.40
2023-05-10T09:22:53.615Z,5.22
2023-05-10T09:25:20.461Z,5.28
2023-05-10T09:27:48.999Z,5.13
2023-05-10T09:30:32.305Z,4.57
2023-05-10T09:33:00.590Z,4.83
2023-05-10T09:35:31.233Z,4.40
2023-05-10T09:38:00.497Z,4.47
2023-05-10T09:40:28.985Z,3.90
2023-05-10T09:42:59.627Z,4.40
2023-05-10T09:45:29.498Z,4.10
2023-05-10T09:47:56.930Z,4.03
2023-05-10T09:50:23.844Z,3.70
2023-05-10T09:52:55.480Z,3.15
2023-05-10T09:55:24.124Z,3.63
2023-05-10T09:58:00.188Z,3.37
2023-05-10T10:00:27.295Z,3.28
2023-05-10T10:03:01.183Z,3.10
2023-05-10T10:05:30.856Z,3.25
2023-05-10T10:08:01.615Z,3.10
2023-05-10T10:10:29.106Z,2.83
2023-05-10T10:12:56.477Z,3.05
2023-05-10T10:15:23.585Z,3.00
2023-05-10T10:17:51.156Z,2.92
2023-05-10T10:20:19.526Z,3.10
2023-05-10T10:22:47.252Z,3.33
2023-05-10T10:25:16.859Z,3.30
2023-05-10T10:27:52.727Z,3.75
2023-05-10T10:30:37.347Z,4.25
2023-05-10T10:33:27.858Z,3.47
2023-05-10T10:35:56.241Z,3.43
2023-05-10T10:38:23.889Z,3.88
2023-05-10T10:41:04.007Z,4.20
2023-05-10T10:43:31.393Z,4.40
2023-05-10T10:46:18.901Z,4.38
2023-05-10T10:48:52.382Z,3.43
2023-05-10T10:51:18.993Z,3.88
2023-05-10T10:53:45.651Z,3.55
2023-05-10T10:56:15.941Z,3.42
2023-05-10T10:58:52.329Z,3.42
2023-05-10T11:01:19.955Z,3.13
2023-05-10T11:04:01.624Z,3.50
2023-05-10T11:06:33.501Z,2.97
2023-05-10T11:09:01.127Z,3.67
2023-05-10T11:11:27.707Z,3.50
2023-05-10T11:13:54.295Z,3.53
2023-05-10T11:16:25.271Z,3.30
2023-05-10T11:19:07.821Z,3.58
2023-05-10T11:21:45.371Z,3.67
2023-05-10T11:24:17.924Z,3.40
2023-05-10T11:26:45.130Z,2.70
2023-05-10T11:29:14.024Z,3.25
2023-05-10T11:31:46.325Z,3.03
2023-05-10T11:34:13.694Z,2.75
2023-05-10T11:36:40.357Z,2.70
2023-05-10T11:39:08.583Z,2.50
2023-05-10T11:41:35.177Z,3.00
2023-05-10T11:44:02.820Z,3.00
2023-05-10T11:46:29.618Z,2.75
2023-05-10T11:49:07.856Z,2.42
2023-05-10T11:51:38.048Z,1.90
2023-05-10T11:54:11.831Z,2.30
2023-05-10T11:56:42.310Z,1.95
2023-05-10T11:59:09.484Z,2.10
2023-05-10T12:01:37.073Z,2.00
2023-05-10T12:04:04.077Z,2.40
2023-05-10T12:06:33.666Z,2.25
2023-05-10T12:09:00.620Z,2.40
2023-05-10T12:11:28.674Z,2.30
2023-05-10T12:13:57.140Z,2.00
2023-05-10T12:16:25.878Z,2.03
2023-05-10T12:18:53.790Z,1.77
2023-05-10T12:21:23.629Z,2.42
2023-05-10T12:23:55.509Z,2.05
2023-05-10T12:26:27.425Z,2.10
2023-05-10T12:28:54.806Z,2.67
2023-05-10T12:31:21.728Z,2.20
2023-05-10T12:33:50.215Z,2.15
2023-05-10T12:36:17.685Z,2.33
2023-05-10T12:38:48.967Z,2.00
2023-05-10T12:41:18.694Z,1.83
2023-05-10T12:43:46.554Z,2.10
2023-05-10T12:46:18.259Z,1.88
2023-05-10T12:48:46.398Z,1.88
2023-05-10T12:51:14.206Z,2.05
2023-05-10T12:53:43.366Z,1.83
2023-05-10T12:56:11.012Z,1.65
2023-05-10T12:58:37.821Z,1.35
2023-05-10T13:01:05.750Z,1.33
2023-05-10T13:03:32.618Z,1.20
2023-05-10T13:05:59.152Z,1.30
2023-05-10T13:08:25.988Z,1.40
2023-05-10T13:10:52.562Z,1.00
2023-05-10T13:13:19.295Z,0.90
2023-05-10T13:15:45.926Z,2.47
2023-05-10T13:18:12.646Z,2.23
2023-05-10T13:20:39.311Z,2.58
2023-05-10T13:23:05.768Z,3.15
2023-05-10T13:25:32.334Z,3.85
2023-05-10T13:27:59.117Z,3.25
2023-05-10T13:30:25.606Z,3.17
2023-05-10T13:32:52.174Z,2.50
2023-05-10T13:35:18.944Z,2.75
2023-05-10T13:37:45.916Z,2.55
2023-05-10T13:40:12.658Z,2.28
2023-05-10T13:42:39.342Z,2.43
2023-05-10T13:45:06.538Z,2.70
2023-05-10T13:47:33.133Z,2.20
2023-05-10T13:49:59.847Z,2.53
2023-05-10T13:52:27.335Z,3.38
2023-05-10T13:54:56.008Z,3.30
2023-05-10T13:57:23.117Z,3.30
2023-05-10T13:59:49.914Z,3.60
2023-05-10T14:02:16.528Z,3.05
2023-05-10T14:04:43.099Z,3.22
2023-05-10T14:07:09.590Z,3.60
2023-05-10T14:09:36.124Z,3.40
2023-05-10T14:12:03.205Z,3.00
2023-05-10T14:14:30.441Z,3.60
2023-05-10T14:16:57.169Z,3.50
2023-05-10T14:19:23.938Z,3.43
2023-05-10T14:21:50.446Z,3.53
2023-05-10T14:24:17.004Z,3.70
2023-05-10T14:26:43.465Z,3.30
2023-05-10T14:29:12.254Z,3.22
2023-05-10T14:31:39.265Z,3.60
2023-05-10T14:34:06.922Z,4.00
2023-05-10T14:36:33.629Z,3.70
2023-05-10T14:39:00.281Z,3.55
2023-05-10T14:41:26.909Z,3.63
2023-05-10T14:43:55.111Z,3.73
2023-05-10T14:46:21.868Z,3.95
2023-05-10T14:48:48.501Z,4.65
2023-05-10T14:51:15.198Z,4.15
2023-05-10T14:53:41.830Z,3.95
2023-05-10T14:56:08.527Z,3.80
2023-05-10T14:58:35.105Z,4.32
2023-05-10T15:01:02.231Z,3.70
2023-05-10T15:03:29.321Z,4.50
2023-05-10T15:05:58.566Z,4.78
2023-05-10T15:08:27.887Z,4.17
2023-05-10T15:10:56.409Z,4.45
2023-05-10T15:13:22.937Z,4.40
2023-05-10T15:15:49.414Z,4.55
2023-05-10T15:18:16.166Z,5.00
2023-05-10T15:20:42.747Z,4.13
2023-05-10T15:23:09.260Z,4.55
2023-05-10T15:25:36.116Z,4.70
2023-05-10T15:28:03.897Z,4.90
2023-05-10T15:30:30.613Z,5.07
2023-05-10T15:32:57.298Z,4.30
2023-05-10T15:35:23.778Z,4.53
2023-05-10T15:37:50.434Z,4.85
2023-05-10T15:40:16.959Z,4.40
2023-05-10T15:42:43.471Z,4.72
2023-05-10T15:45:11.805Z,3.93
2023-05-10T15:47:40.753Z,4.15
2023-05-10T15:50:08.395Z,4.13
2023-05-10T15:52:35.082Z,3.90
2023-05-10T15:55:01.692Z,4.03
2023-05-10T15:57:28.360Z,4.53
2023-05-10T15:59:55.115Z,4.13
2023-05-10T16:02:22.574Z,3.30
2023-05-10T16:04:49.367Z,3.35
2023-05-10T16:07:15.984Z,3.60
2023-05-10T16:09:42.615Z,3.40
2023-05-10T16:12:09.152Z,3.88
2023-05-10T16:14:35.760Z,3.00
2023-05-10T16:17:05.248Z,3.67
2023-05-10T16:19:32.063Z,3.25
2023-05-10T16:21:58.716Z,3.87
2023-05-10T16:24:26.235Z,3.95
2023-05-10T16:26:52.818Z,3.50
2023-05-10T16:29:19.355Z,3.40
2023-05-10T16:31:46.448Z,3.45
2023-05-10T16:34:13.152Z,3.47
2023-05-10T16:36:39.689Z,3.28
2023-05-10T16:39:06.306Z,3.33
2023-05-10T16:41:34.287Z,3.60
2023-05-10T16:44:01.424Z,4.10
2023-05-10T16:46:28.091Z,3.17
2023-05-10T16:48:54.617Z,3.42
2023-05-10T16:51:21.554Z,2.67
2023-05-10T16:53:48.136Z,2.95
2023-05-10T16:56:14.755Z,2.90
2023-05-10T16:58:41.286Z,3.13
2023-05-10T17:01:07.921Z,2.45
2023-05-10T17:03:34.660Z,2.70
2023-05-10T17:06:01.421Z,2.45
2023-05-10T17:08:27.992Z,2.60
2023-05-10T17:10:54.557Z,2.60
2023-05-10T17:13:21.009Z,2.55
2023-05-10T17:15:47.595Z,2.40
2023-05-10T17:18:14.208Z,2.30
2023-05-10T17:20:44.017Z,2.20
2023-05-10T17:23:11.222Z,2.50
2023-05-10T17:25:37.705Z,2.45
2023-05-10T17:28:04.530Z,2.80
2023-05-10T17:30:32.674Z,2.65
2023-05-10T17:33:02.329Z,2.80
2023-05-10T17:35:31.322Z,3.00
2023-05-10T17:37:58.280Z,3.10
2023-05-10T17:40:24.874Z,3.10
2023-05-10T17:42:52.262Z,3.10
2023-05-10T17:45:19.127Z,3.03
2023-05-10T17:47:45.962Z,2.70
2023-05-10T17:50:12.525Z,3.03
2023-05-10T17:52:39.047Z,3.30
2023-05-10T17:55:06.209Z,3.08
2023-05-10T17:57:33.197Z,2.80
2023-05-10T17:59:59.965Z,2.87
2023-05-10T18:02:26.429Z,3.25
2023-05-10T18:04:53.226Z,3.40
2023-05-10T18:07:20.443Z,3.50
2023-05-10T18:09:46.884Z,3.70
2023-05-10T18:12:13.683Z,3.90
2023-05-10T18:14:41.470Z,3.42
2023-05-10T18:17:09.533Z,3.63
2023-05-10T18:19:36.408Z,3.97
2023-05-10T18:22:03.247Z,4.43
2023-05-10T18:24:38.878Z,3.60
2023-05-10T18:27:08.390Z,4.03
2023-05-10T18:29:35.189Z,6.15
2023-05-10T18:32:01.717Z,4.93
2023-05-10T18:34:28.782Z,4.22
2023-05-10T18:36:55.858Z,4.03
2023-05-10T18:39:22.395Z,4.38
2023-05-10T18:41:50.643Z,4.10
2023-05-10T18:44:18.799Z,3.90
2023-05-10T18:46:45.511Z,4.45
2023-05-10T18:49:12.065Z,3.93
2023-05-10T18:51:38.553Z,4.35
2023-05-10T18:54:05.070Z,4.70
2023-05-10T18:56:31.589Z,4.32
2023-05-10T18:58:58.118Z,4.85
2023-05-10T19:01:24.687Z,4.50
2023-05-10T19:03:51.186Z,4.80
2023-05-10T19:06:17.721Z,4.70
2023-05-10T19:08:44.272Z,4.63
2023-05-10T19:11:10.941Z,4.63
2023-05-10T19:13:37.420Z,5.10
2023-05-10T19:16:06.102Z,6.22
2023-05-10T19:18:33.742Z,5.85
2023-05-10T19:21:04.350Z,8.20
2023-05-10T19:23:34.619Z,6.40
2023-05-10T19:26:01.624Z,5.53
2023-05-10T19:28:28.421Z,6.75
2023-05-10T19:30:55.106Z,8.15
2023-05-10T19:33:21.751Z,7.47
2023-05-10T19:35:52.097Z,6.95
2023-05-10T19:38:25.614Z,6.33
2023-05-10T19:40:58.101Z,7.00
2023-05-10T19:43:28.792Z,6.15
2023-05-10T19:45:58.966Z,5.53
2023-05-10T19:48:25.792Z,5.90
2023-05-10T19:50:53.494Z,5.60
2023-05-10T19:53:20.192Z,5.82
2023-05-10T19:55:46.655Z,5.68
2023-05-10T19:58:13.602Z,5.18
2023-05-10T20:00:40.657Z,5.68
2023-05-10T20:03:09.181Z,5.57
2023-05-10T20:05:35.881Z,5.45
2023-05-10T20:08:02.653Z,6.00
2023-05-10T20:10:29.367Z,6.05
2023-05-10T20:12:56.074Z,5.68
2023-05-10T20:15:23.625Z,5.80
2023-05-10T20:17:52.725Z,5.70
2023-05-10T20:20:20.625Z,5.80
2023-05-10T20:22:48.580Z,5.75
2023-05-10T20:25:16.240Z,5.00
2023-05-10T20:27:42.978Z,4.87
2023-05-10T20:30:10.445Z,5.53
2023-05-10T20:32:37.867Z,5.72
2023-05-10T20:35:05.736Z,4.85
2023-05-10T20:37:32.196Z,5.35
2023-05-10T20:39:58.850Z,5.53
2023-05-10T20:42:25.653Z,5.63
2023-05-10T20:44:52.354Z,4.97
2023-05-10T20:47:19.055Z,5.70
2023-05-10T20:49:45.915Z,5.47
2023-05-10T20:52:12.644Z,5.63
2023-05-10T20:54:39.228Z,5.25
2023-05-10T20:57:05.872Z,5.32
2023-05-10T20:59:32.370Z,5.25
2023-05-10T21:01:59.127Z,5.45
2023-05-10T21:04:25.990Z,5.13
2023-05-10T21:06:53.046Z,5.57
2023-05-10T21:09:19.663Z,6.05
2023-05-10T21:11:46.226Z,5.15
2023-05-10T21:14:12.821Z,6.03
2023-05-10T21:16:39.807Z,5.27
2023-05-10T21:19:07.629Z,5.65
2023-05-10T21:21:34.421Z,6.65
2023-05-10T21:24:01.121Z,5.97
2023-05-10T21:26:27.681Z,6.40
2023-05-10T21:28:54.363Z,5.80
2023-05-10T21:31:21.039Z,6.28
2023-05-10T21:33:47.713Z,5.40
2023-05-10T21:36:14.278Z,5.70
2023-05-10T21:38:42.232Z,6.05
2023-05-10T21:41:08.727Z,5.23
2023-05-10T21:43:35.261Z,5.38
2023-05-10T21:46:01.875Z,4.60
2023-05-10T21:48:28.434Z,4.50
2023-05-10T21:50:55.081Z,5.63
2023-05-10T21:53:22.387Z,5.50
2023-05-10T21:55:49.008Z,6.45
2023-05-10T21:58:15.799Z,5.50
2023-05-10T22:00:42.328Z,4.78
2023-05-10T22:03:09.035Z,5.68
2023-05-10T22:05:35.620Z,5.20
2023-05-10T22:08:02.164Z,4.38
2023-05-10T22:10:28.713Z,4.97
2023-05-10T22:12:55.304Z,5.13
2023-05-10T22:15:21.941Z,5.70
2023-05-10T22:17:48.517Z,5.23
2023-05-10T22:20:15.118Z,4.63
2023-05-10T22:22:41.750Z,5.18
2023-05-10T22:25:09.123Z,5.30
2023-05-10T22:27:35.831Z,5.07
2023-05-10T22:30:04.088Z,5.20
2023-05-10T22:32:31.916Z,4.82
2023-05-10T22:34:58.498Z,5.05
2023-05-10T22:37:24.965Z,5.38
2023-05-10T22:39:51.429Z,5.65
2023-05-10T22:42:18.005Z,5.33
2023-05-10T22:44:44.568Z,5.70
2023-05-10T22:47:11.331Z,6.20
2023-05-10T22:49:38.098Z,6.18
2023-05-10T22:52:04.524Z,6.60
2023-05-10T22:54:31.079Z,5.40
2023-05-10T22:56:57.794Z,5.32
2023-05-10T22:59:24.345Z,5.60
2023-05-10T23:01:51.062Z,6.15
2023-05-10T23:04:18.085Z,5.30
2023-05-10T23:06:45.874Z,6.30
2023-05-10T23:09:12.674Z,5.47
2023-05-10T23:11:39.450Z,5.80
2023-05-10T23:14:05.995Z,6.40
2023-05-10T23:16:32.671Z,6.32
2023-05-10T23:18:59.201Z,6.60
2023-05-10T23:21:25.809Z,7.18
2023-05-10T23:23:52.520Z,7.05
2023-05-10T23:26:19.278Z,7.40
2023-05-10T23:28:45.756Z,8.10
2023-05-10T23:31:12.265Z,6.83
2023-05-10T23:33:38.810Z,6.95
2023-05-10T23:36:05.712Z,7.82
2023-05-10T23:38:32.269Z,6.82
2023-05-10T23:40:58.767Z,6.45
2023-05-10T23:43:25.646Z,7.40
2023-05-10T23:45:56.840Z,7.15
2023-05-10T23:48:24.130Z,7.43
2023-05-10T23:50:50.806Z,7.00
2023-05-10T23:53:17.439Z,6.20
2023-05-10T23:55:44.240Z,7.40
2023-05-10T23:58:11.014Z,7.05
